createdAt,value
2022-08-18T00:00:50.413Z,100542.55
2022-08-18T00:01:55.438Z,100535.8
2022-08-18T00:03:12.278Z,100546.61
2022-08-18T00:05:08.077Z,100534.44
2022-08-18T00:06:18.189Z,100540.35
2022-08-18T00:07:22.574Z,100534.44
2022-08-18T00:08:26.971Z,100536.61
2022-08-18T00:09:33.891Z,100546.08
2022-08-18T00:10:38.296Z,100550.13
2022-08-18T00:11:43.218Z,100546.52
2022-08-18T00:12:47.611Z,100547.42
2022-08-18T00:13:51.987Z,100546.61
2022-08-18T00:14:56.348Z,100545.26
2022-08-18T00:16:00.739Z,100546.2
2022-08-18T00:17:05.172Z,100546.08
2022-08-18T00:18:09.501Z,100542.02
2022-08-18T00:19:14.089Z,100542.02
2022-08-18T00:20:18.448Z,100540.66
2022-08-18T00:21:22.843Z,100546.08
2022-08-18T00:22:27.199Z,100537.46
2022-08-18T00:23:31.701Z,100537.46
2022-08-18T00:24:36.130Z,100536.61
2022-08-18T00:25:52.816Z,100547.96
2022-08-18T00:26:57.209Z,100543.91
2022-08-18T00:28:01.553Z,100536.83
2022-08-18T00:29:05.887Z,100534.53
2022-08-18T00:30:10.223Z,100528.19
2022-08-18T00:31:14.572Z,100534.53
2022-08-18T00:32:18.915Z,100534.12
2022-08-18T00:33:23.273Z,100535.98
2022-08-18T00:34:33.385Z,100535.98
2022-08-18T00:35:37.911Z,100543.37
2022-08-18T00:36:42.265Z,100532.14
2022-08-18T00:37:46.642Z,100532.96
2022-08-18T00:38:51.075Z,100537.55
2022-08-18T00:39:55.653Z,100542.11
2022-08-18T00:41:01.891Z,100539.41
2022-08-18T00:42:06.246Z,100542.11
2022-08-18T00:43:10.614Z,100541.2
2022-08-18T00:44:14.973Z,100544.72
2022-08-18T00:45:19.319Z,100542.64
2022-08-18T00:46:23.678Z,100547.52
2022-08-18T00:47:43.466Z,100549.72
2022-08-18T00:48:49.895Z,100547.42
2022-08-18T00:49:56.690Z,100540.66
2022-08-18T00:51:01.030Z,100548.27
2022-08-18T00:52:05.424Z,100548.68
2022-08-18T00:53:09.808Z,100544.22
2022-08-18T00:54:14.160Z,100542.86
2022-08-18T00:55:18.519Z,100536.61
2022-08-18T00:56:22.956Z,100543.9
2022-08-18T00:57:27.298Z,100545.13
2022-08-18T00:58:31.690Z,100546.07
2022-08-18T00:59:40.001Z,100553.55
2022-08-18T01:00:44.445Z,100548.68
2022-08-18T01:01:48.973Z,100552.33
2022-08-18T01:02:53.327Z,100547.33
2022-08-18T01:03:57.767Z,100554.09
2022-08-18T01:05:02.157Z,100548.27
2022-08-18T01:06:06.511Z,100549.63
2022-08-18T01:07:10.858Z,100555.53
2022-08-18T01:08:15.218Z,100554.59
2022-08-18T01:09:31.963Z,100548.15
2022-08-18T01:10:36.348Z,100545.03
2022-08-18T01:11:40.678Z,100545.56
2022-08-18T01:12:47.902Z,100546.92
2022-08-18T01:13:52.232Z,100546.8
2022-08-18T01:14:56.618Z,100544.22
2022-08-18T01:16:00.985Z,100551.48
2022-08-18T01:17:05.339Z,100546.48
2022-08-18T01:18:09.689Z,100542.02
2022-08-18T01:19:14.108Z,100541.52
2022-08-18T01:20:18.453Z,100532.05
2022-08-18T01:21:22.808Z,100541.08
2022-08-18T01:22:27.159Z,100543.46
2022-08-18T01:23:31.521Z,100545.98
2022-08-18T01:24:35.880Z,100543.37
2022-08-18T01:25:40.231Z,100551.39
2022-08-18T01:26:46.840Z,100546.16
2022-08-18T01:27:51.531Z,100536.2
2022-08-18T01:28:56.236Z,100539.41
2022-08-18T01:30:00.600Z,100535.25
2022-08-18T01:31:04.952Z,100535.66
2022-08-18T01:32:09.300Z,100530.79
2022-08-18T01:33:13.685Z,100533.09
2022-08-18T01:34:18.200Z,100525.88
2022-08-18T01:35:22.547Z,100529.75
2022-08-18T01:36:26.887Z,100528.59
2022-08-18T01:37:31.251Z,100531.3
2022-08-18T01:38:35.658Z,100529.44
2022-08-18T01:41:30.654Z,100525.38
2022-08-18T01:42:35.811Z,100528.41
2022-08-18T01:43:40.162Z,100521.33
2022-08-18T01:44:44.503Z,100522.67
2022-08-18T01:45:48.860Z,100521.33
2022-08-18T01:46:53.231Z,100521.83
2022-08-18T01:47:57.701Z,100518.3
2022-08-18T01:49:02.793Z,100518.72
2022-08-18T01:50:07.154Z,100515.19
2022-08-18T01:51:13.418Z,100522.77
2022-08-18T01:52:17.803Z,100519.25
2022-08-18T01:53:22.157Z,100515.6
2022-08-18T01:54:26.546Z,100517.89
2022-08-18T01:55:30.925Z,100517.98
2022-08-18T01:56:35.277Z,100519.34
2022-08-18T01:57:40.299Z,100521.11
2022-08-18T01:58:44.656Z,100519.34
2022-08-18T01:59:49.061Z,100524.75
2022-08-18T02:00:53.456Z,100523.09
2022-08-18T02:01:58.104Z,100526.42
2022-08-18T02:03:04.222Z,100522.59
2022-08-18T02:04:37.177Z,100519.88
2022-08-18T02:05:43.126Z,100525.29
2022-08-18T02:06:51.776Z,100517.99
2022-08-18T02:07:57.292Z,100521.23
2022-08-18T02:09:01.645Z,100519.75
2022-08-18T02:10:12.787Z,100519.88
2022-08-18T02:11:20.764Z,100521.64
2022-08-18T02:12:25.154Z,100518.21
2022-08-18T02:13:29.511Z,100526.64
2022-08-18T02:14:33.870Z,100522.67
2022-08-18T02:15:38.227Z,100521.64
2022-08-18T02:16:46.530Z,100522.59
2022-08-18T02:17:51.232Z,100514.97
2022-08-18T02:18:56.097Z,100519.03
2022-08-18T02:20:01.217Z,100514.97
2022-08-18T02:21:09.994Z,100511.45
2022-08-18T02:22:14.710Z,100515.06
2022-08-18T02:23:19.058Z,100517.27
2022-08-18T02:24:23.402Z,100517.27
2022-08-18T02:25:27.733Z,100517.77
2022-08-18T02:26:32.096Z,100512.8
2022-08-18T02:27:36.466Z,100518.21
2022-08-18T02:28:40.838Z,100510.7
2022-08-18T02:29:45.218Z,100508.31
2022-08-18T02:30:49.630Z,100503.44
2022-08-18T02:31:54.040Z,100506.55
2022-08-18T02:32:58.403Z,100509.78
2022-08-18T02:34:02.766Z,100507.48
2022-08-18T02:35:11.844Z,100510.09
2022-08-18T02:36:16.445Z,100514.66
2022-08-18T02:37:20.802Z,100508.75
2022-08-18T02:38:25.152Z,100512.48
2022-08-18T02:39:33.541Z,100509.25
2022-08-18T02:40:38.062Z,100509.25
2022-08-18T02:41:42.406Z,100502.9
2022-08-18T02:42:46.758Z,100507.99
2022-08-18T02:43:52.027Z,100513.84
2022-08-18T02:44:58.622Z,100512.05
2022-08-18T02:46:03.006Z,100516.01
2022-08-18T02:47:07.361Z,100519.25
2022-08-18T02:48:11.705Z,100515.19
2022-08-18T02:49:16.044Z,100513.94
2022-08-18T02:50:20.405Z,100519.34
2022-08-18T02:51:27.084Z,100519.44
2022-08-18T02:52:31.486Z,100512.67
2022-08-18T02:53:35.856Z,100514.97
2022-08-18T02:54:40.206Z,100511.95
2022-08-18T02:55:44.533Z,100520.47
2022-08-18T02:56:48.938Z,100520.06
2022-08-18T02:57:53.700Z,100522.98
2022-08-18T02:58:58.193Z,100518.62
2022-08-18T03:00:02.597Z,100521.32
2022-08-18T03:01:07.389Z,100520.28
2022-08-18T03:02:11.844Z,100518.49
2022-08-18T03:03:16.206Z,100523.49
2022-08-18T03:04:26.776Z,100520.38
2022-08-18T03:05:34.080Z,100521.73
2022-08-18T03:06:38.468Z,100532.45
2022-08-18T03:07:42.908Z,100525.37
2022-08-18T03:08:47.294Z,100529
2022-08-18T03:09:51.647Z,100520.16
2022-08-18T03:10:56.013Z,100520.16
2022-08-18T03:12:00.367Z,100522.45
2022-08-18T03:13:04.769Z,100516.63
2022-08-18T03:14:12.430Z,100529.71
2022-08-18T03:15:16.786Z,100526.51
2022-08-18T03:16:21.122Z,100516.2
2022-08-18T03:17:25.644Z,100528.89
2022-08-18T03:18:30.050Z,100521.73
2022-08-18T03:19:35.605Z,100515.06
2022-08-18T03:20:42.376Z,100515.47
2022-08-18T03:21:47.089Z,100517.36
2022-08-18T03:22:52.261Z,100522.77
2022-08-18T03:24:02.771Z,100529.93
2022-08-18T03:25:13.931Z,100527.64
2022-08-18T03:26:18.306Z,100528.89
2022-08-18T03:27:22.740Z,100524.3
2022-08-18T03:28:27.135Z,100527.45
2022-08-18T03:29:33.915Z,100535.03
2022-08-18T03:30:38.286Z,100536.38
2022-08-18T03:31:42.676Z,100536.79
2022-08-18T03:32:47.132Z,100540.34
2022-08-18T03:33:51.499Z,100539.49
2022-08-18T03:34:55.847Z,100536.29
2022-08-18T03:36:00.207Z,100531.29
2022-08-18T03:37:04.567Z,100534.31
2022-08-18T03:38:08.976Z,100545.44
2022-08-18T03:39:13.407Z,100543.59
2022-08-18T03:40:17.897Z,100543.9
2022-08-18T03:42:01.380Z,100542.11
2022-08-18T03:43:50.419Z,100549.72
2022-08-18T03:44:55.913Z,100552.42
2022-08-18T03:46:00.258Z,100549.31
2022-08-18T03:47:04.595Z,100550.13
2022-08-18T03:48:08.949Z,100551.48
2022-08-18T03:49:13.315Z,100547.95
2022-08-18T03:50:17.648Z,100555.03
2022-08-18T03:51:21.994Z,100557.3
2022-08-18T03:52:26.424Z,100554.5
2022-08-18T03:53:30.788Z,100559.81
2022-08-18T03:54:35.119Z,100561.16
2022-08-18T03:55:39.509Z,100562.52
2022-08-18T03:56:43.932Z,100555.22
2022-08-18T03:57:48.306Z,100564.69
2022-08-18T03:58:52.785Z,100561.08
2022-08-18T03:59:57.147Z,100567.92
2022-08-18T04:01:01.634Z,100567.92
2022-08-18T04:02:06.102Z,100562.11
2022-08-18T04:03:10.436Z,100569.78
2022-08-18T04:04:14.821Z,100567.3
2022-08-18T04:05:19.247Z,100571.48
2022-08-18T04:06:31.290Z,100562.39
2022-08-18T04:07:35.663Z,100560.07
2022-08-18T04:08:40.013Z,100560.55
2022-08-18T04:09:44.430Z,100563.09
2022-08-18T04:10:48.798Z,100567.14
2022-08-18T04:11:53.240Z,100565.38
2022-08-18T04:12:57.630Z,100561.72
2022-08-18T04:14:03.499Z,100566.72
2022-08-18T04:15:07.882Z,100565.86
2022-08-18T04:16:12.259Z,100562.94
2022-08-18T04:17:16.621Z,100565.23
2022-08-18T04:18:20.973Z,100573.15
2022-08-18T04:19:28.845Z,100561.81
2022-08-18T04:20:33.271Z,100562.84
2022-08-18T04:21:37.634Z,100560.14
2022-08-18T04:22:42.030Z,100567.2
2022-08-18T04:23:46.373Z,100560.03
2022-08-18T04:24:50.932Z,100561.78
2022-08-18T04:25:55.343Z,100557.61
2022-08-18T04:26:59.715Z,100564.36
2022-08-18T04:28:04.120Z,100559.08
2022-08-18T04:29:08.478Z,100571.64
2022-08-18T04:30:12.839Z,100564.89
2022-08-18T04:31:17.238Z,100564.57
2022-08-18T04:32:21.635Z,100561.65
2022-08-18T04:33:34.165Z,100563.22
2022-08-18T04:34:38.536Z,100565.05
2022-08-18T04:35:42.881Z,100567.44
2022-08-18T04:36:47.264Z,100558.92
2022-08-18T04:37:52.222Z,100565.77
2022-08-18T04:38:57.495Z,100569.41
2022-08-18T04:40:02.905Z,100566.63
2022-08-18T04:41:07.405Z,100558.83
2022-08-18T04:42:11.824Z,100553.43
2022-08-18T04:43:16.197Z,100558.39
2022-08-18T04:44:20.548Z,100552.8
2022-08-18T04:45:24.893Z,100558.39
2022-08-18T04:46:29.304Z,100567.97
2022-08-18T04:47:33.771Z,100559.74
2022-08-18T04:48:38.140Z,100562.98
2022-08-18T04:49:42.519Z,100563.16
2022-08-18T04:50:46.857Z,100562.34
2022-08-18T04:52:41.848Z,100565.05
2022-08-18T04:53:46.371Z,100562.84
2022-08-18T04:54:50.734Z,100558.7
2022-08-18T04:55:55.099Z,100560.9
2022-08-18T04:56:59.442Z,100558.08
2022-08-18T04:58:03.809Z,100563.39
2022-08-18T04:59:08.166Z,100559.55
2022-08-18T05:00:12.523Z,100550.19
2022-08-18T05:01:16.985Z,100554.73
2022-08-18T05:02:21.453Z,100565.98
2022-08-18T05:03:27.630Z,100560.67
2022-08-18T05:04:32.056Z,100566.08
2022-08-18T05:05:36.436Z,100564
2022-08-18T05:06:40.807Z,100555.68
2022-08-18T05:07:45.189Z,100566.48
2022-08-18T05:08:49.760Z,100561.81
2022-08-18T05:09:55.201Z,100557.44
2022-08-18T05:11:05.088Z,100560.14
2022-08-18T05:12:11.577Z,100563.6
2022-08-18T05:13:15.925Z,100562.75
2022-08-18T05:14:20.305Z,100565.13
2022-08-18T05:15:24.711Z,100566.89
2022-08-18T05:16:29.172Z,100565.13
2022-08-18T05:17:33.596Z,100569.59
2022-08-18T05:18:42.702Z,100567.66
2022-08-18T05:19:49.789Z,100569.83
2022-08-18T05:20:55.556Z,100566.72
2022-08-18T05:22:04.088Z,100569
2022-08-18T05:23:10.062Z,100569.41
2022-08-18T05:24:14.427Z,100565.86
2022-08-18T05:25:18.790Z,100567.22
2022-08-18T05:26:23.166Z,100564.73
2022-08-18T05:27:27.548Z,100566.09
2022-08-18T05:28:32.001Z,100565.77
2022-08-18T05:29:42.040Z,100568.47
2022-08-18T05:30:50.239Z,100559.42
2022-08-18T05:31:54.647Z,100563.2
2022-08-18T05:32:59.028Z,100560.59
2022-08-18T05:34:03.428Z,100561.22
2022-08-18T05:35:09.340Z,100558.3
2022-08-18T05:36:13.716Z,100557.67
2022-08-18T05:37:18.074Z,100561.31
2022-08-18T05:38:22.543Z,100557.97
2022-08-18T05:39:27.016Z,100559.23
2022-08-18T05:40:31.499Z,100562.84
2022-08-18T05:41:35.850Z,100562.34
2022-08-18T05:42:40.225Z,100558.47
2022-08-18T05:43:53.295Z,100563.88
2022-08-18T05:44:57.640Z,100555.49
2022-08-18T05:46:02.006Z,100557.68
2022-08-18T05:47:06.376Z,100557.17
2022-08-18T05:48:10.786Z,100553.43
2022-08-18T05:49:15.142Z,100559.78
2022-08-18T05:50:19.514Z,100556.14
2022-08-18T05:51:23.866Z,100556.25
2022-08-18T05:52:28.227Z,100553.88
2022-08-18T05:53:36.332Z,100556.8
2022-08-18T05:54:44.462Z,100553.55
2022-08-18T05:55:49.262Z,100550.35
2022-08-18T05:56:53.609Z,100549.1
2022-08-18T05:57:58.005Z,100547.02
2022-08-18T05:59:02.423Z,100550.05
2022-08-18T06:00:06.795Z,100556.17
2022-08-18T06:01:11.194Z,100551.39
2022-08-18T06:02:16.361Z,100553.59
2022-08-18T06:03:20.951Z,100547.65
2022-08-18T06:04:25.454Z,100549
2022-08-18T06:05:29.859Z,100551.7
2022-08-18T06:06:34.208Z,100556.08
2022-08-18T06:07:38.582Z,100551.93
2022-08-18T06:08:42.923Z,100551.3
2022-08-18T06:09:47.297Z,100557.44
2022-08-18T06:10:51.670Z,100556.7
2022-08-18T06:11:56.041Z,100554.73
2022-08-18T06:13:00.465Z,100557.84
2022-08-18T06:14:04.813Z,100556.17
2022-08-18T06:15:09.270Z,100557.74
2022-08-18T06:16:13.661Z,100558.24
2022-08-18T06:17:18.100Z,100557.97
2022-08-18T06:18:22.519Z,100555.58
2022-08-18T06:19:26.872Z,100563.56
2022-08-18T06:20:31.237Z,100564.33
2022-08-18T06:21:40.158Z,100566.09
2022-08-18T06:22:56.173Z,100569.2
2022-08-18T06:24:00.677Z,100566.27
2022-08-18T06:25:05.033Z,100567.13
2022-08-18T06:26:09.398Z,100562.03
2022-08-18T06:27:13.759Z,100569.02
2022-08-18T06:28:18.136Z,100570.37
2022-08-18T06:29:22.487Z,100569.02
2022-08-18T06:30:26.859Z,100572.22
2022-08-18T06:31:31.230Z,100569.92
2022-08-18T06:32:35.609Z,100567.66
2022-08-18T06:33:39.942Z,100567.75
2022-08-18T06:34:44.284Z,100575.65
2022-08-18T06:35:49.567Z,100566.5
2022-08-18T06:36:55.329Z,100568.07
2022-08-18T06:37:59.793Z,100571.5
2022-08-18T06:39:04.147Z,100570.69
2022-08-18T06:40:08.650Z,100571.09
2022-08-18T06:41:44.169Z,100571.5
2022-08-18T06:42:48.539Z,100568.3
2022-08-18T06:43:52.905Z,100575.47
2022-08-18T06:44:57.292Z,100573.9
2022-08-18T06:46:01.685Z,100568.17
2022-08-18T06:47:06.119Z,100569.53
2022-08-18T06:48:16.544Z,100563.09
2022-08-18T06:49:21.183Z,100569.84
2022-08-18T06:50:25.540Z,100563.94
2022-08-18T06:51:29.986Z,100572.05
2022-08-18T06:52:34.348Z,100564.44
2022-08-18T06:53:38.681Z,100561.95
2022-08-18T06:54:52.233Z,100569.34
2022-08-18T06:55:56.644Z,100564.38
2022-08-18T06:57:01.042Z,100568.75
2022-08-18T06:58:05.386Z,100567.13
2022-08-18T06:59:09.751Z,100566
2022-08-18T07:00:15.512Z,100566.79
2022-08-18T07:01:20.217Z,100572.79
2022-08-18T07:02:25.265Z,100568.01
2022-08-18T07:03:29.612Z,100568.22
2022-08-18T07:04:33.976Z,100569.59
2022-08-18T07:05:38.337Z,100569.28
2022-08-18T07:06:42.686Z,100572.84
2022-08-18T07:07:47.049Z,100564.01
2022-08-18T07:08:52.427Z,100567.62
2022-08-18T07:09:56.803Z,100565.36
2022-08-18T07:11:01.171Z,100568.79
2022-08-18T07:12:05.559Z,100568.16
2022-08-18T07:13:09.914Z,100569.2
2022-08-18T07:14:18.271Z,100571.81
2022-08-18T07:15:22.614Z,100572.53
2022-08-18T07:16:58.645Z,100570.56
2022-08-18T07:18:03.783Z,100571
2022-08-18T07:19:08.142Z,100576.72
2022-08-18T07:20:12.520Z,100573.58
2022-08-18T07:21:16.890Z,100578.39
2022-08-18T07:22:38.948Z,100581.86
2022-08-18T07:23:44.361Z,100577.99
2022-08-18T07:25:06.587Z,100577.39
2022-08-18T07:26:10.945Z,100571.2
2022-08-18T07:27:19.015Z,100575.69
2022-08-18T07:28:23.466Z,100571.86
2022-08-18T07:29:27.806Z,100571.14
2022-08-18T07:30:32.175Z,100573.66
2022-08-18T07:31:36.557Z,100571.14
2022-08-18T07:32:40.938Z,100575.42
2022-08-18T07:33:45.300Z,100576.56
2022-08-18T07:34:54.345Z,100572.95
2022-08-18T07:35:58.700Z,100573.86
2022-08-18T07:37:03.063Z,100573.58
2022-08-18T07:38:43.409Z,100571.28
2022-08-18T07:39:49.735Z,100577.73
2022-08-18T07:40:55.623Z,100569.62
2022-08-18T07:42:00.003Z,100575.84
2022-08-18T07:43:04.384Z,100568.57
2022-08-18T07:44:14.546Z,100570.02
2022-08-18T07:45:24.877Z,100571.78
2022-08-18T07:46:29.220Z,100575.44
2022-08-18T07:47:33.567Z,100575.98
2022-08-18T07:48:41.200Z,100575.27
2022-08-18T07:50:23.305Z,100571.52
2022-08-18T07:52:02.219Z,100572.47
2022-08-18T07:53:08.432Z,100575.72
2022-08-18T07:54:49.693Z,100570.41
2022-08-18T07:55:54.797Z,100577.38
2022-08-18T07:56:59.145Z,100579.45
2022-08-18T07:58:03.496Z,100575.81
2022-08-18T07:59:07.902Z,100579.37
2022-08-18T08:00:41.425Z,100577.08
2022-08-18T08:02:03.082Z,100577.38
2022-08-18T08:03:07.684Z,100577.7
2022-08-18T08:04:26.657Z,100583.52
2022-08-18T08:05:31.060Z,100575.23
2022-08-18T08:06:36.257Z,100575.1
2022-08-18T08:07:40.591Z,100578.75
2022-08-18T08:08:46.081Z,100577.21
2022-08-18T08:09:53.046Z,100576.14
2022-08-18T08:10:57.448Z,100579.06
2022-08-18T08:12:01.864Z,100578.34
2022-08-18T08:13:10.551Z,100576.99
2022-08-18T08:14:15.024Z,100578.56
2022-08-18T08:15:27.846Z,100576.17
2022-08-18T08:16:32.251Z,100586.15
2022-08-18T08:17:36.606Z,100582.09
2022-08-18T08:18:40.988Z,100583.03
2022-08-18T08:20:01.952Z,100578.97
2022-08-18T08:21:06.607Z,100582.18
2022-08-18T08:22:11.066Z,100580.95
2022-08-18T08:23:15.433Z,100580.73
2022-08-18T08:24:21.677Z,100583.98
2022-08-18T08:25:56.031Z,100591.16
2022-08-18T08:27:00.378Z,100585.87
2022-08-18T08:28:04.852Z,100585.16
2022-08-18T08:29:09.214Z,100588.09
2022-08-18T08:30:15.361Z,100589.13
2022-08-18T08:31:38.427Z,100591.92
2022-08-18T08:32:42.869Z,100590.57
2022-08-18T08:33:47.198Z,100594.31
2022-08-18T08:34:51.614Z,100587.64
2022-08-18T08:35:55.978Z,100595.88
2022-08-18T08:37:00.339Z,100588.17
2022-08-18T08:38:42.524Z,100595.76
2022-08-18T08:39:48.933Z,100600.98
2022-08-18T08:40:53.427Z,100597.02
2022-08-18T08:42:33.768Z,100593.78
2022-08-18T08:43:43.749Z,100594.62
2022-08-18T08:45:00.469Z,100596.7
2022-08-18T08:46:04.876Z,100595.27
2022-08-18T08:47:09.206Z,100597.43
2022-08-18T08:48:15.653Z,100595.16
2022-08-18T08:49:19.971Z,100601.72
2022-08-18T08:50:24.345Z,100601.12
2022-08-18T08:51:31.263Z,100597.88
2022-08-18T08:52:36.248Z,100602.34
2022-08-18T08:53:40.609Z,100598.19
2022-08-18T08:54:45.657Z,100600.8
2022-08-18T08:55:50.132Z,100603.92
2022-08-18T08:56:54.575Z,100597.78
2022-08-18T08:57:58.969Z,100600.71
2022-08-18T08:59:03.310Z,100590.23
2022-08-18T09:00:07.659Z,100600.2
2022-08-18T09:01:11.993Z,100591.91
2022-08-18T09:02:47.631Z,100592.94
2022-08-18T09:03:52.571Z,100588.34
2022-08-18T09:05:10.319Z,100593.25
2022-08-18T09:06:14.680Z,100592.31
2022-08-18T09:07:19.033Z,100593.98
2022-08-18T09:08:23.407Z,100595.74
2022-08-18T09:09:27.767Z,100591.59
2022-08-18T09:10:32.194Z,100586.39
2022-08-18T09:11:36.698Z,100585.64
2022-08-18T09:12:41.066Z,100589.07
2022-08-18T09:13:45.425Z,100587.09
2022-08-18T09:14:49.777Z,100588.98
2022-08-18T09:15:54.712Z,100591.18
2022-08-18T09:16:59.058Z,100585.77
2022-08-18T09:18:03.431Z,100581.39
2022-08-18T09:19:07.773Z,100584.1
2022-08-18T09:20:12.135Z,100590.33
2022-08-18T09:21:16.499Z,100582.75
2022-08-18T09:22:20.830Z,100584.2
2022-08-18T09:23:25.218Z,100588.16
2022-08-18T09:24:29.564Z,100588.69
2022-08-18T09:25:33.924Z,100593.16
2022-08-18T09:26:40.392Z,100587.84
2022-08-18T09:28:11.679Z,100586.71
2022-08-18T09:29:16.162Z,100584.22
2022-08-18T09:30:21.927Z,100582.23
2022-08-18T09:31:26.475Z,100578.27
2022-08-18T09:32:35.251Z,100574.84
2022-08-18T09:33:46.613Z,100580.16
2022-08-18T09:34:51.455Z,100577.14
2022-08-18T09:35:58.814Z,100574.53
2022-08-18T09:37:03.159Z,100584.85
2022-08-18T09:38:09.870Z,100577.86
2022-08-18T09:39:20.522Z,100582.77
2022-08-18T13:05:56.407Z,100416.52
2022-08-18T13:07:07.019Z,100423.38
2022-08-18T13:08:13.656Z,100417.88
2022-08-18T13:09:54.554Z,100423.7
2022-08-18T13:10:59.395Z,100422.78
2022-08-18T13:12:28.596Z,100422.78
2022-08-18T13:13:34.088Z,100420.99
2022-08-18T13:14:44.611Z,100426
2022-08-18T13:16:03.455Z,100437.23
2022-08-18T13:17:29.241Z,100430.37
2022-08-18T13:18:37.817Z,100431.41
2022-08-18T13:19:45.725Z,100432.56
2022-08-18T13:20:52.328Z,100435.78
2022-08-18T13:21:58.174Z,100434.42
2022-08-18T13:23:03.815Z,100432.12
2022-08-18T13:24:13.715Z,100432.25
2022-08-18T13:25:40.590Z,100434.83
2022-08-18T13:26:47.052Z,100434.73
2022-08-18T13:28:59.668Z,100425.27
2022-08-18T13:30:32.496Z,100425.58
2022-08-18T13:31:39.130Z,100423.81
2022-08-18T13:33:02.851Z,100424.95
2022-08-18T13:35:13.440Z,100429.95
2022-08-18T13:36:19.701Z,100440.37
2022-08-18T13:37:28.837Z,100443.08
2022-08-18T13:38:33.310Z,100438.39
2022-08-18T13:39:44.958Z,100436.5
2022-08-18T13:40:49.742Z,100440.46
2022-08-18T13:41:54.151Z,100441.91
2022-08-18T13:43:01.235Z,100436.72
2022-08-18T13:44:12.742Z,100435.78
2022-08-18T13:45:26.237Z,100430.91
2022-08-18T13:46:32.563Z,100433.61
2022-08-18T13:47:39.283Z,100429.86
2022-08-18T13:48:47.967Z,100429.42
2022-08-18T13:49:59.451Z,100427.25
2022-08-18T13:51:03.829Z,100431.62
2022-08-18T13:52:33.319Z,100422.05
2022-08-18T13:54:18.619Z,100423.72
2022-08-18T13:55:36.210Z,100421.2
2022-08-18T13:56:40.936Z,100422.23
2022-08-18T13:57:56.498Z,100417.27
2022-08-18T13:59:01.205Z,100408.71
2022-08-18T14:00:20.238Z,100406.45
2022-08-18T14:01:51.505Z,100401.34
2022-08-18T14:02:57.474Z,100400.5
2022-08-18T14:04:03.016Z,100398.64
2022-08-18T14:05:16.379Z,100391.34
2022-08-18T14:06:25.148Z,100388.01
2022-08-18T14:07:31.277Z,100393.95
2022-08-18T14:08:41.400Z,100392.6
2022-08-18T14:09:46.575Z,100383
2022-08-18T14:10:50.931Z,100390.71
2022-08-18T14:11:55.409Z,100385.3
2022-08-18T14:13:24.478Z,100390.2
2022-08-18T14:14:32.663Z,100391.02
2022-08-18T14:15:39.817Z,100392.6
2022-08-18T14:16:46.193Z,100394.27
2022-08-18T14:17:51.628Z,100396.84
2022-08-18T14:18:57.492Z,100398.64
2022-08-18T14:20:03.118Z,100402.57
2022-08-18T14:21:10.399Z,100407.88
2022-08-18T14:22:17.813Z,100402.28
2022-08-18T14:23:32.359Z,100400.7
2022-08-18T14:24:37.881Z,100397.8
2022-08-18T14:25:43.359Z,100397.27
2022-08-18T14:26:51.361Z,100393.11
2022-08-18T14:27:57.984Z,100383.84
2022-08-18T14:29:16.348Z,100387.78
2022-08-18T14:30:55.705Z,100382.37
2022-08-18T14:32:01.951Z,100388.5
2022-08-18T14:33:06.973Z,100391.12
2022-08-18T14:34:26.927Z,100385.8
2022-08-18T14:36:09.345Z,100388.95
2022-08-18T14:37:14.400Z,100385.2
2022-08-18T14:38:20.763Z,100387.38
2022-08-18T14:39:26.832Z,100382.67
2022-08-18T14:40:32.777Z,100381.53
2022-08-18T14:41:49.475Z,100380.59
2022-08-18T14:43:00.510Z,100378.11
2022-08-18T14:44:16.086Z,100380.07
2022-08-18T14:45:36.350Z,100381.02
2022-08-18T14:46:42.094Z,100382.77
2022-08-18T14:47:58.753Z,100375.19
2022-08-18T14:49:05.235Z,100378
2022-08-18T14:50:10.897Z,100374.47
2022-08-18T14:51:15.220Z,100371.36
2022-08-18T14:52:28.075Z,100378
2022-08-18T14:53:35.209Z,100388.41
2022-08-18T14:54:51.139Z,100380.07
2022-08-18T14:56:00.243Z,100372.06
2022-08-18T14:57:05.749Z,100374.36
2022-08-18T14:58:12.850Z,100370.71
2022-08-18T14:59:20.121Z,100373.11
2022-08-18T15:00:25.227Z,100370.09
2022-08-18T15:01:36.002Z,100373.02
2022-08-18T15:02:50.184Z,100368
2022-08-18T15:03:57.485Z,100372.57
2022-08-18T15:05:02.038Z,100364.89
2022-08-18T15:06:28.444Z,100365.8
2022-08-18T15:07:34.289Z,100370.3
2022-08-18T15:08:39.480Z,100368.64
2022-08-18T15:10:16.771Z,100366.66
2022-08-18T15:11:27.204Z,100366.66
2022-08-18T15:12:37.122Z,100362.28
2022-08-18T15:13:43.230Z,100364.58
2022-08-18T15:14:48.912Z,100354.67
2022-08-18T15:16:03.293Z,100364.58
2022-08-18T15:17:14.733Z,100361.88
2022-08-18T15:18:24.024Z,100363.63
2022-08-18T15:20:01.595Z,100355.52
2022-08-18T15:21:19.758Z,100357.27
2022-08-18T15:22:42.098Z,100361.75
2022-08-18T15:23:47.481Z,100362.19
2022-08-18T15:25:01.732Z,100351.86
2022-08-18T15:26:10.847Z,100354.16
2022-08-18T15:27:42.110Z,100349.25
2022-08-18T15:28:51.778Z,100349.25
2022-08-18T15:30:03.527Z,100354.98
2022-08-18T15:31:56.583Z,100347.7
2022-08-18T15:33:14.848Z,100359.03
2022-08-18T15:34:21.742Z,100353.53
2022-08-18T15:35:31.804Z,100349.47
2022-08-18T15:36:36.139Z,100351.67
2022-08-18T15:37:44.601Z,100350.82
2022-08-18T15:38:48.943Z,100352.17
2022-08-18T15:39:57.160Z,100353.84
2022-08-18T15:41:10.228Z,100356.75
2022-08-18T15:42:14.901Z,100357.27
2022-08-18T15:43:20.276Z,100357.7
2022-08-18T15:44:29.479Z,100353.11
2022-08-18T15:45:36.552Z,100352.7
2022-08-18T15:47:01.166Z,100347.28
2022-08-18T15:48:06.471Z,100351.84
2022-08-18T15:49:16.582Z,100347.69
2022-08-18T15:50:27.183Z,100350.94
2022-08-18T15:51:41.939Z,100362.98
2022-08-18T15:52:49.427Z,100359.97
2022-08-18T15:53:57.357Z,100363.12
2022-08-18T15:55:09.176Z,100367.48
2022-08-18T15:56:14.055Z,100373.5
2022-08-18T15:57:58.518Z,100371.23
2022-08-18T15:59:04.555Z,100378.82
2022-08-18T16:00:13.543Z,100379.23
2022-08-18T16:01:33.261Z,100386.43
2022-08-18T16:02:40.163Z,100379.84
2022-08-18T16:03:52.606Z,100380.7
2022-08-18T16:04:57.864Z,100378.7
2022-08-18T16:06:03.992Z,100380.16
2022-08-18T16:07:12.072Z,100378.49
2022-08-18T16:08:16.483Z,100386.61
2022-08-18T16:09:20.850Z,100380.7
2022-08-18T16:10:25.208Z,100384.86
2022-08-18T16:11:30.724Z,100378.09
2022-08-18T16:12:35.056Z,100374.97
2022-08-18T16:13:39.437Z,100393.07
2022-08-18T16:14:43.773Z,100374.66
2022-08-18T16:15:48.157Z,100374.25
2022-08-18T16:16:52.498Z,100372.67
2022-08-18T16:17:56.886Z,100372.48
2022-08-18T16:19:01.264Z,100372.79
2022-08-18T16:20:05.586Z,100372.56
2022-08-18T16:21:10.023Z,100364.75
2022-08-18T16:22:14.395Z,100363.39
2022-08-18T16:23:18.734Z,100369.34
2022-08-18T16:24:23.089Z,100368.41
2022-08-18T16:25:27.421Z,100367.55